• Join FlightAware (Why Join?)
  • Login
  • US Flag 
01:29PM EDT


 

Airport Tracker/Info


-or-


 

Live Flight TrackerFlight Track Log ✈ DAL268 ✈ 09-Jun-2013 ✈ KATL - KJFK

Flight Track Log - Related Links

Times and Time Zones

All times are in EDT time to prevent confusion due to time zone crossing. See the DAL268 flight status page for this flight to view local times or setup timezone preferences in your user account.

Time Position Orientation Groundspeed Altitude Reporting Facility
EDT Latitude Longitude Course Direction KTS MPH feet Rate Location/Type
06:36PM 33.6347 -84.4878 64° Northeast 451 519 2,700  Level Atlanta Center
06:37PM 33.6167 -84.5167 233° Southwest 207 238 3,700 2,340 Climbing Atlanta TRACON
06:38PM 33.5833 -84.5667 231° Southwest 251 289 5,900 2,520 Climbing Atlanta TRACON
06:39PM 33.5167 -84.5833 192° South 260 299 8,500 2,460 Climbing Atlanta TRACON
06:40PM 33.4500 -84.5500 157° South 291 335 10,900 1,800 Climbing Atlanta TRACON
06:41PM 33.4667 -84.4333 80° East 355 409 12,200 1,200 Climbing Atlanta TRACON
06:41PM 33.4578 -84.3725 100° East 392 451 12,900 1,800 Climbing Atlanta Center
06:42PM 33.6740 -83.5746 64° Northeast  Level FlightAware Approximate
06:42PM 33.4725 -84.2431 82° East 404 465 15,200  Level Atlanta Center
06:43PM 33.5144 -84.1186 68° East 397 457 17,400 1,800 Climbing Atlanta Center
06:44PM 33.5311 -83.9814 82° East 402 463 18,800 1,560 Climbing Atlanta Center
06:45PM 33.5500 -83.8394 81° East 420 483 20,600 1,680 Climbing Atlanta Center
06:46PM 33.5619 -83.6947 84° East 432 497 22,200 1,440 Climbing Atlanta Center
06:47PM 33.5719 -83.5428 85° East 447 514 23,500 1,200 Climbing Atlanta Center
06:48PM 33.6131 -83.4003 71° East 447 514 24,700 1,020 Climbing Atlanta Center
06:49PM 33.6853 -83.2650 57° Northeast 458 527 25,600 900 Climbing Atlanta Center
06:50PM 33.7553 -83.1269 59° Northeast 477 549 26,600 900 Climbing Atlanta Center
06:51PM 33.8333 -82.9758 58° Northeast 477 549 27,400 960 Climbing Atlanta Center
06:52PM 33.9031 -82.8375 59° Northeast 482 555 28,600 780 Climbing Atlanta Center
06:53PM 33.9600 -82.6864 66° East 477 549 29,000 180 Climbing Atlanta Center
06:54PM 34.0103 -82.5328 68° East 490 564 29,000 420 Level Atlanta Center
06:55PM 34.0775 -82.3836 61° Northeast 490 564 29,900 1,020 Climbing Atlanta Center
06:56PM 34.1256 -82.2422 68° East 495 570 31,100 960 Climbing Atlanta Center
06:57PM 34.1711 -82.0881 70° East 495 570 31,900 780 Climbing Atlanta Center
06:58PM 34.2103 -81.9289 73° East 495 570 32,700 540 Climbing Atlanta Center
06:59PM 34.2514 -81.7769 72° East 484 557 33,000 120 Climbing Atlanta Center
07:00PM 34.3133 -81.6344 62° Northeast 477 549 33,000  Level Atlanta Center
07:01PM 34.3792 -81.4892 61° Northeast 472 543 33,000  Level Atlanta Center
07:02PM 34.4428 -81.3386 63° Northeast 484 557 33,000  Level Atlanta Center
07:03PM 34.5144 -81.1800 61° Northeast 484 557 33,000  Level Atlanta Center
07:04PM 34.5778 -81.0342 62° Northeast 484 557 33,000  Level Atlanta Center
07:05PM 34.6406 -80.8803 64° Northeast 494 568 33,000  Level Atlanta Center
07:06PM 34.6978 -80.7494 62° Northeast 483 556 33,000  Level Atlanta Center
07:07PM 34.7625 -80.6028 62° Northeast 489 563 33,000  Level Atlanta Center
07:09PM 34.8883 -80.3067 63° Northeast 458 527 33,000  Level Washington Center
07:10PM 34.9525 -80.1583 62° Northeast 470 541 33,000  Level Washington Center
07:11PM 35.0231 -80.0000 61° Northeast 486 559 33,000  Level Washington Center
07:12PM 35.0911 -79.8539 60° Northeast 486 559 33,000  Level Washington Center
07:13PM 35.1731 -79.7186 53° Northeast 486 559 33,000  Level Washington Center
07:14PM 35.2547 -79.5853 53° Northeast 492 566 33,000  Level Washington Center
07:15PM 35.3406 -79.4547 51° Northeast 492 566 33,000  Level Washington Center
07:16PM 35.4242 -79.3133 54° Northeast 502 578 33,000  Level Washington Center
07:17PM 35.4956 -79.1689 59° Northeast 502 578 33,000  Level Washington Center
07:18PM 35.5683 -79.0292 57° Northeast 488 562 33,000  Level Washington Center
07:19PM 35.6433 -78.8867 57° Northeast 488 562 33,000  Level Washington Center
07:20PM 35.7161 -78.7411 58° Northeast 488 562 33,000  Level Washington Center
07:21PM 35.7928 -78.5983 56° Northeast 493 567 33,000  Level Washington Center
07:22PM 35.8672 -78.4575 57° Northeast 493 567 33,000  Level Washington Center
07:23PM 35.9458 -78.3142 56° Northeast 493 567 33,000  Level Washington Center
07:24PM 36.0319 -78.1861 50° Northeast 493 567 33,000  Level Washington Center
07:25PM 36.1117 -78.0706 49° Northeast 493 567 33,000  Level Washington Center
07:26PM 36.2019 -77.9447 48° Northeast 493 567 33,000  Level Washington Center
07:27PM 36.2919 -77.8133 50° Northeast 488 562 33,000  Level Washington Center
07:28PM 36.3861 -77.6869 47° Northeast 493 567 33,000  Level Washington Center
07:29PM 36.4822 -77.5500 49° Northeast 488 562 33,000  Level Washington Center
07:30PM 36.5803 -77.4233 46° Northeast 488 562 33,000  Level Washington Center
07:31PM 36.6758 -77.3011 46° Northeast 488 562 33,000  Level Washington Center
07:32PM 36.7736 -77.1761 46° Northeast 493 567 33,000  Level Washington Center
07:33PM 36.8650 -77.0536 47° Northeast 488 562 33,000  Level Washington Center
07:34PM 36.9517 -76.9408 46° Northeast 488 562 33,000  Level Washington Center
07:35PM 37.0447 -76.8150 47° Northeast 488 562 33,000  Level Washington Center
07:36PM 37.1378 -76.6914 47° Northeast 488 562 33,000  Level Washington Center
07:37PM 37.2328 -76.5675 46° Northeast 488 562 33,000  Level Washington Center
07:38PM 37.3275 -76.4433 46° Northeast 488 562 33,000  Level Washington Center
07:39PM 37.4222 -76.3161 47° Northeast 493 567 33,000  Level Washington Center
07:40PM 37.5147 -76.1914 47° Northeast 488 562 33,000  Level Washington Center
07:41PM 37.6153 -76.0689 44° Northeast 488 562 33,000  Level Washington Center
07:42PM 37.7097 -75.9383 48° Northeast 493 567 33,000  Level Washington Center
07:43PM 37.8058 -75.8072 47° Northeast 498 573 33,000  Level Washington Center
07:44PM 37.9019 -75.6786 47° Northeast 503 579 33,000  Level Washington Center
07:45PM 37.9981 -75.5497 47° Northeast 503 579 33,000  Level Washington Center
07:46PM 38.1042 -75.4414 39° Northeast 497 572 33,000  Level Washington Center
07:47PM 38.2272 -75.3697 25° Northeast 484 557 33,000  Level Washington Center
07:48PM 38.3561 -75.2792 29° Northeast 484 557 33,000  Level Washington Center
07:49PM 38.4811 -75.2044 25° Northeast 484 557 33,000  Level Washington Center
07:50PM 38.6017 -75.1347 24° Northeast 479 551 33,000  Level Washington Center
07:51PM 38.7203 -75.0542 28° Northeast 479 551 33,000 -300 Level Washington Center
07:52PM 38.8408 -74.9733 28° Northeast 479 551 32,400 -1,740 Descending Washington Center
07:53PM 38.9633 -74.8947 27° Northeast 479 551 29,600 -2,700 Descending Washington Center
07:54PM 39.0839 -74.8214 25° Northeast 479 551 27,100 -2,400 Descending Washington Center
07:55PM 39.1933 -74.7106 38° Northeast 484 557 24,800 -2,520 Descending Washington Center
07:57PM 39.3856 -74.4992 40° Northeast 484 557 19,700 -2,100 Descending New York Center
07:58PM 39.4828 -74.3886 41° Northeast 471 542 18,600 -900 Descending New York Center
07:59PM 39.5647 -74.2986 40° Northeast 449 517 18,000 -1,020 Descending New York Center
08:00PM 39.6703 -74.1825 40° Northeast 444 511 16,600 -1,860 Descending New York Center
08:01PM 39.7564 -74.0867 41° Northeast 427 491 14,400 -2,340 Descending New York Center
08:02PM 39.8425 -73.9936 40° Northeast 406 467 12,000 -1,740 Descending New York Center
08:03PM 39.9231 -73.9378 28° Northeast 380 437 11,000 -540 Descending New York Center
08:04PM 40.0017 -73.8817 29° Northeast 335 386 11,000  Level New York Center
08:05PM 40.0728 -73.8008 41° Northeast 304 350 11,000 -480 Level New York Center
08:06PM 40.1333 -73.7667 23° Northeast 300 345 10,200 -1,500 Descending New York TRACON
08:07PM 40.2000 -73.8000 339° North 275 316 8,400 -1,140 Descending New York TRACON
08:08PM 40.2667 -73.8667 323° Northwest 276 318 8,000 -1,200 Descending New York TRACON
08:09PM 40.3167 -73.9333 315° West 267 307 6,000 -2,040 Descending New York TRACON
08:09PM 40.3250 -73.9481 307° West 264 304 5,500 -1,920 Descending New York Center
08:10PM 40.3481 -74.0253 291° West 256 295 3,600 -1,440 Descending New York Center
08:11PM 40.4000 -74.0500 340° North 238 274 3,000 -360 Descending New York TRACON
08:12PM 40.4500 -74.0167 27° Northeast 195 224 3,000  Level New York TRACON
08:13PM 40.5000 -73.9833 27° Northeast 196 226 3,000 -120 Level New York TRACON
08:14PM 40.5500 -73.9500 27° Northeast 198 228 2,800 -540 Descending New York TRACON
08:15PM 40.5833 -73.9167 37° Northeast 168 193 2,000 -780 Descending New York TRACON
08:16PM 40.6167 -73.8833 37° Northeast 156 180 1,300 -600 Descending New York TRACON
08:17PM 40.6667 -73.8500 27° Northeast 156 180 800 -540 Descending New York TRACON
08:19PM 40.6398 -73.7789 North  Level Estimated
08:26PM 40.6398 -73.7789 North  Level Estimated
08:27PM 40.6398 -73.7789 North  Level Estimated